Time;durP1;ratioP1;P1;durP2;ratioP2;P2;SDS_P1;SDS_P2;PMS_P1;PMS_P2;Temp;Humidity;BMP_temperature;BMP_pressure;BME280_temperature;BME280_humidity;BME280_pressure;Samples;Min_cycle;Max_cycle;Signal;HPM_P1;HPM_P2
2021/06/26 00:00:53;;;;;;;4.47;4.07;;;26.10;55.00;;;;;;4938098;29;20407;-82
2021/06/26 00:03:20;;;;;;;4.60;4.20;;;26.10;55.00;;;;;;4937573;29;20423;-82
2021/06/26 00:05:46;;;;;;;5.27;4.77;;;26.10;55.00;;;;;;4937167;29;20426;-81
2021/06/26 00:08:13;;;;;;;4.80;4.40;;;26.10;55.00;;;;;;4937379;29;20455;-82
2021/06/26 00:10:40;;;;;;;5.03;4.47;;;26.10;55.00;;;;;;4953333;29;20430;-82
2021/06/26 00:13:06;;;;;;;5.37;4.60;;;26.10;55.00;;;;;;4952644;29;20463;-81
2021/06/26 00:15:35;;;;;;;4.53;4.10;;;26.10;55.00;;;;;;4954099;29;20419;-81
2021/06/26 00:18:06;;;;;;;5.40;4.07;;;26.10;55.10;;;;;;4937136;29;20438;-81
2021/06/26 00:20:32;;;;;;;5.87;4.20;;;26.10;55.10;;;;;;4937038;29;20459;-81
2021/06/26 00:26:20;;;;;;;4.63;3.93;;;26.10;55.00;;;;;;4954544;29;20406;-81
2021/06/26 00:28:46;;;;;;;4.63;3.83;;;26.10;55.10;;;;;;4937845;29;20435;-81
2021/06/26 00:31:12;;;;;;;4.70;4.20;;;26.00;55.00;;;;;;4953885;29;20186;-82
2021/06/26 00:33:38;;;;;;;4.90;4.43;;;26.10;55.10;;;;;;4937010;29;20423;-82
2021/06/26 00:36:05;;;;;;;4.40;3.70;;;26.10;55.10;;;;;;4937400;29;20422;-82
2021/06/26 00:38:31;;;;;;;5.13;4.50;;;26.10;55.10;;;;;;4937420;29;20479;-82
2021/06/26 00:40:57;;;;;;;5.53;3.97;;;26.10;55.10;;;;;;4937269;29;20407;-82
2021/06/26 00:43:23;;;;;;;3.97;3.53;;;26.10;55.10;;;;;;4937292;29;20419;-82
2021/06/26 00:45:49;;;;;;;4.33;3.87;;;26.10;55.10;;;;;;4936747;29;20434;-82
2021/06/26 00:48:15;;;;;;;4.40;4.00;;;26.00;55.00;;;;;;4952916;29;20187;-82
2021/06/26 00:50:41;;;;;;;4.00;3.60;;;26.10;55.10;;;;;;4937965;29;20427;-82
2021/06/26 00:53:13;;;;;;;3.50;3.20;;;26.10;55.10;;;;;;4954093;29;20490;-82
2021/06/26 00:55:39;;;;;;;3.63;3.33;;;26.10;55.10;;;;;;4954259;29;20434;-81
2021/06/26 00:58:05;;;;;;;4.97;3.80;;;26.00;55.00;;;;;;4937123;29;20443;-81
2021/06/26 01:04:06;;;;;;;4.07;3.67;;;26.00;55.00;;;;;;4955746;29;20391;-83
2021/06/26 01:06:33;;;;;;;3.87;3.57;;;26.00;55.10;;;;;;4937997;29;20403;-82
2021/06/26 01:08:59;;;;;;;4.87;3.33;;;26.00;55.10;;;;;;4938092;29;20439;-83
2021/06/26 01:11:25;;;;;;;4.30;3.73;;;26.00;55.00;;;;;;4940011;29;20474;-83
2021/06/26 01:13:51;;;;;;;3.90;3.37;;;26.00;55.00;;;;;;4939335;29;20499;-83
2021/06/26 01:16:18;;;;;;;4.47;4.03;;;26.00;55.00;;;;;;4938946;29;20199;-82
2021/06/26 01:18:47;;;;;;;5.27;4.43;;;26.00;55.00;;;;;;4938204;29;20487;-83
2021/06/26 01:21:18;;;;;;;4.03;3.63;;;26.00;55.00;;;;;;4939595;29;20427;-82
2021/06/26 01:23:51;;;;;;;6.30;4.07;;;26.00;55.00;;;;;;4938366;29;20430;-83
2021/06/26 01:26:17;;;;;;;4.70;4.00;;;26.00;55.00;;;;;;4939380;29;20411;-82
2021/06/26 01:28:43;;;;;;;5.13;4.63;;;26.00;54.90;;;;;;4938628;29;20411;-82
2021/06/26 01:31:09;;;;;;;5.23;3.53;;;26.00;54.90;;;;;;4937352;29;20434;-82
2021/06/26 01:33:36;;;;;;;3.97;3.67;;;26.10;55.00;;;;;;4937665;29;20426;-82
2021/06/26 01:36:05;;;;;;;4.03;3.63;;;26.00;54.90;;;;;;4937452;29;20403;-82
2021/06/26 01:38:31;;;;;;;7.53;4.37;;;26.00;54.90;;;;;;4937335;29;20925;-82
2021/06/26 01:41:00;;;;;;;6.00;3.60;;;26.00;54.90;;;;;;4938350;29;20414;-82
2021/06/26 01:43:26;;;;;;;4.10;3.80;;;26.00;54.90;;;;;;4937661;29;20426;-82
2021/06/26 01:45:53;;;;;;;4.23;3.83;;;26.00;54.90;;;;;;4938734;29;20418;-82
2021/06/26 01:48:21;;;;;;;4.40;4.00;;;26.00;54.80;;;;;;4941182;29;20427;-82
2021/06/26 01:50:51;;;;;;;4.70;4.10;;;26.00;54.80;;;;;;4940749;29;20429;-82
2021/06/26 01:53:21;;;;;;;4.53;3.50;;;26.00;54.80;;;;;;4940377;29;20466;-82
2021/06/26 01:55:47;;;;;;;4.20;3.70;;;26.00;54.80;;;;;;4941446;29;20458;-83
2021/06/26 01:58:13;;;;;;;4.37;3.70;;;26.00;55.40;;;;;;4942281;29;20439;-82
2021/06/26 02:00:39;;;;;;;3.70;3.40;;;26.00;54.80;;;;;;4942976;29;20454;-83
2021/06/26 02:03:05;;;;;;;4.70;4.17;;;26.00;54.80;;;;;;4943119;29;20411;-83
2021/06/26 02:05:31;;;;;;;5.83;4.00;;;26.00;54.80;;;;;;4942546;29;20250;-82
2021/06/26 02:08:01;;;;;;;4.57;4.10;;;26.00;55.40;;;;;;4941207;29;20779;-83
2021/06/26 02:10:27;;;;;;;3.80;3.50;;;26.00;54.80;;;;;;4942609;29;20558;-82
2021/06/26 02:12:53;;;;;;;3.80;3.47;;;25.90;54.80;;;;;;4940872;29;20458;-82
2021/06/26 02:15:21;;;;;;;4.53;4.10;;;25.90;54.80;;;;;;4941685;29;20423;-82
2021/06/26 02:17:47;;;;;;;4.50;3.97;;;25.90;54.70;;;;;;4940838;29;20423;-83
2021/06/26 02:20:16;;;;;;;4.57;4.10;;;25.90;54.70;;;;;;4941928;29;20419;-83
2021/06/26 02:22:43;;;;;;;7.10;4.70;;;25.90;54.70;;;;;;4940966;29;20427;-82
2021/06/26 02:25:09;;;;;;;4.40;4.00;;;25.90;54.70;;;;;;4940874;29;20490;-82
2021/06/26 02:27:36;;;;;;;4.53;4.00;;;25.90;54.70;;;;;;4937522;29;20423;-82
2021/06/26 02:30:09;;;;;;;5.57;4.37;;;25.90;54.70;;;;;;4940188;29;20434;-82
2021/06/26 02:32:36;;;;;;;5.53;4.37;;;25.90;54.70;;;;;;4940364;29;20526;-82
2021/06/26 02:35:03;;;;;;;5.97;4.40;;;25.90;54.70;;;;;;4939358;29;20415;-82
2021/06/26 02:37:29;;;;;;;5.27;4.73;;;25.90;54.70;;;;;;4940159;29;20503;-82
2021/06/26 02:39:55;;;;;;;4.27;3.87;;;25.90;54.70;;;;;;4956806;29;20430;-83
2021/06/26 02:42:20;;;;;;;4.70;3.90;;;25.90;54.70;;;;;;4956475;29;20407;-83
2021/06/26 02:44:46;;;;;;;6.70;4.03;;;25.90;54.70;;;;;;4939533;29;20183;-82
2021/06/26 02:47:12;;;;;;;4.67;4.27;;;25.90;54.70;;;;;;4939981;29;20185;-82
2021/06/26 02:49:41;;;;;;;4.73;4.13;;;25.90;54.80;;;;;;4940102;29;20183;-82
2021/06/26 02:52:07;;;;;;;5.67;4.57;;;25.90;54.70;;;;;;4940202;29;20207;-83
2021/06/26 02:54:33;;;;;;;4.87;4.40;;;25.90;54.70;;;;;;4940456;29;20419;-83
2021/06/26 02:57:03;;;;;;;4.53;4.07;;;25.90;54.70;;;;;;4940182;29;20533;-83
2021/06/26 02:59:33;;;;;;;4.50;4.10;;;25.90;54.80;;;;;;4940649;29;20416;-83
2021/06/26 03:01:59;;;;;;;4.53;4.13;;;25.90;54.70;;;;;;4941715;29;20446;-82
2021/06/26 03:04:25;;;;;;;4.53;4.13;;;25.90;54.70;;;;;;4941905;29;20435;-82
2021/06/26 03:06:51;;;;;;;9.00;4.53;;;25.90;54.80;;;;;;4957215;29;20425;-82
2021/06/26 03:09:17;;;;;;;4.93;4.40;;;25.90;54.70;;;;;;4940161;29;20274;-83
2021/06/26 03:11:43;;;;;;;5.10;4.63;;;25.90;54.70;;;;;;4957321;29;20469;-83
2021/06/26 03:14:12;;;;;;;4.90;4.40;;;25.90;54.70;;;;;;4939501;29;20187;-82
2021/06/26 03:16:38;;;;;;;5.47;4.97;;;25.90;54.70;;;;;;4938971;29;20937;-82
2021/06/26 03:19:04;;;;;;;7.83;5.40;;;25.90;54.70;;;;;;4938950;29;20451;-82
2021/06/26 03:21:30;;;;;;;5.80;4.40;;;25.90;54.70;;;;;;4939562;29;20426;-81
2021/06/26 03:23:56;;;;;;;8.33;4.70;;;25.90;54.70;;;;;;4938222;29;20523;-82
2021/06/26 03:26:22;;;;;;;5.70;5.10;;;25.90;54.70;;;;;;4938271;29;20206;-83
2021/06/26 03:28:48;;;;;;;6.60;5.87;;;25.90;54.70;;;;;;4938944;29;20185;-82
2021/06/26 03:31:16;;;;;;;6.50;5.40;;;25.90;54.80;;;;;;4938526;29;20252;-82
2021/06/26 03:33:45;;;;;;;6.40;5.47;;;25.80;54.80;;;;;;4955550;29;20407;-82
2021/06/26 03:36:11;;;;;;;5.77;5.13;;;25.80;54.90;;;;;;4938385;29;20415;-83
2021/06/26 03:38:40;;;;;;;7.27;5.40;;;25.80;55.00;;;;;;4955110;29;20415;-83
2021/06/26 03:41:06;;;;;;;7.13;6.37;;;25.80;55.00;;;;;;4938165;29;20185;-83
2021/06/26 03:43:32;;;;;;;5.40;4.83;;;25.70;55.10;;;;;;4938416;29;20427;-83
2021/06/26 03:45:59;;;;;;;6.37;4.67;;;25.70;55.10;;;;;;4954909;29;20419;-83
2021/06/26 03:48:26;;;;;;;8.40;6.17;;;25.60;55.10;;;;;;4953608;29;20427;-83
2021/06/26 03:50:58;;;;;;;7.00;5.63;;;25.60;55.20;;;;;;4953665;29;20429;-83
2021/06/26 03:53:25;;;;;;;6.67;6.00;;;25.60;55.30;;;;;;4937245;29;20463;-81
2021/06/26 03:55:57;;;;;;;7.90;6.90;;;25.60;55.30;;;;;;4922306;29;20455;-81
2021/06/26 03:58:25;;;;;;;6.30;5.70;;;25.60;55.30;;;;;;4937780;29;20447;-82
2021/06/26 04:00:51;;;;;;;7.40;6.60;;;25.60;55.40;;;;;;4936996;29;20426;-82
2021/06/26 04:03:18;;;;;;;8.07;6.80;;;25.60;55.50;;;;;;4937145;29;20439;-82
2021/06/26 04:05:45;;;;;;;7.67;6.57;;;25.50;55.40;;;;;;4936584;29;20454;-82
2021/06/26 04:08:13;;;;;;;7.57;6.87;;;25.60;55.50;;;;;;4936440;29;20926;-82
2021/06/26 04:10:39;;;;;;;8.00;7.20;;;25.50;55.50;;;;;;4936344;29;20434;-83
2021/06/26 04:13:06;;;;;;;8.30;7.23;;;25.50;55.50;;;;;;4936991;29;20471;-83
2021/06/26 04:15:33;;;;;;;8.30;6.63;;;25.50;55.60;;;;;;4936192;29;20497;-83
2021/06/26 04:17:59;;;;;;;11.30;8.50;;;25.50;55.60;;;;;;4936362;29;20435;-83
2021/06/26 04:20:25;;;;;;;8.70;6.77;;;25.50;55.60;;;;;;4953533;29;20434;-83
2021/06/26 04:22:52;;;;;;;8.67;7.53;;;25.50;55.60;;;;;;4936030;29;20507;-82
2021/06/26 04:25:19;;;;;;;12.10;8.37;;;25.50;55.70;;;;;;4936208;29;20427;-82
2021/06/26 04:27:46;;;;;;;10.00;7.73;;;25.50;55.70;;;;;;4936973;29;20431;-82
2021/06/26 04:30:13;;;;;;;12.40;7.53;;;25.50;55.70;;;;;;4936019;29;20426;-82
2021/06/26 04:32:40;;;;;;;10.70;7.70;;;25.50;55.70;;;;;;4936707;29;20471;-82
2021/06/26 04:35:11;;;;;;;11.57;8.50;;;25.50;55.70;;;;;;4952806;29;20449;-83
2021/06/26 04:37:37;;;;;;;10.40;8.33;;;25.50;55.70;;;;;;4936450;29;20566;-82
2021/06/26 04:40:04;;;;;;;10.40;7.87;;;25.50;55.70;;;;;;4936425;29;20486;-82
2021/06/26 04:42:30;;;;;;;9.17;8.20;;;25.50;55.80;;;;;;4935781;29;20518;-82
2021/06/26 04:44:57;;;;;;;9.77;8.20;;;25.50;55.80;;;;;;4935737;29;20461;-83
2021/06/26 04:47:25;;;;;;;11.10;8.93;;;25.50;55.80;;;;;;4937073;29;20427;-83
2021/06/26 04:49:51;;;;;;;9.57;8.57;;;25.40;55.70;;;;;;4954212;29;20422;-84
2021/06/26 04:52:17;;;;;;;10.83;8.97;;;25.50;55.80;;;;;;4936863;29;20462;-84
2021/06/26 04:54:43;;;;;;;9.87;8.17;;;25.40;55.70;;;;;;4937444;29;20430;-82
2021/06/26 04:57:09;;;;;;;10.60;7.93;;;25.40;55.80;;;;;;4953156;29;20426;-82
2021/06/26 04:59:35;;;;;;;10.70;8.20;;;25.40;55.80;;;;;;4920415;29;20471;-83
2021/06/26 05:02:04;;;;;;;14.53;10.07;;;25.40;55.80;;;;;;4937154;29;20179;-83
2021/06/26 05:04:32;;;;;;;11.70;9.60;;;25.40;55.80;;;;;;4936506;29;20430;-82
2021/06/26 05:06:58;;;;;;;10.47;8.47;;;25.40;55.90;;;;;;4937367;29;20407;-82
2021/06/26 05:09:24;;;;;;;11.00;9.40;;;25.40;55.90;;;;;;4936206;29;20442;-83
2021/06/26 05:11:50;;;;;;;11.00;8.90;;;25.40;55.80;;;;;;4936446;29;20313;-83
2021/06/26 05:14:16;;;;;;;10.50;9.40;;;25.40;55.90;;;;;;4952942;29;20415;-83
2021/06/26 05:16:42;;;;;;;11.63;9.63;;;25.40;55.90;;;;;;4937037;29;20435;-83
2021/06/26 05:19:09;;;;;;;10.30;9.03;;;25.40;55.90;;;;;;4936536;29;20202;-83
2021/06/26 05:21:35;;;;;;;9.83;8.17;;;25.40;55.90;;;;;;4938793;29;20523;-84
2021/06/26 05:24:02;;;;;;;12.10;10.30;;;25.40;55.90;;;;;;4940572;29;20423;-84
2021/06/26 05:26:31;;;;;;;11.47;9.40;;;25.40;56.50;;;;;;4940471;29;20438;-84
2021/06/26 05:28:57;;;;;;;13.33;9.10;;;25.30;55.90;;;;;;4939945;29;20421;-84
2021/06/26 05:31:24;;;;;;;11.23;9.20;;;25.40;56.00;;;;;;4940579;29;20434;-84
2021/06/26 05:33:53;;;;;;;12.70;8.83;;;25.40;56.00;;;;;;4940523;29;20178;-84
2021/06/26 05:39:41;;;;;;;10.27;8.30;;;25.40;56.00;;;;;;4880487;29;20452;-83
2021/06/26 05:42:07;;;;;;;11.67;8.90;;;25.40;56.10;;;;;;4880351;29;20474;-84
2021/06/26 05:44:33;;;;;;;10.20;9.17;;;25.30;56.10;;;;;;4865393;29;20547;-82
2021/06/26 05:46:59;;;;;;;10.97;9.03;;;25.30;56.00;;;;;;4880154;29;20452;-83
2021/06/26 05:49:25;;;;;;;10.60;8.87;;;25.40;56.10;;;;;;4864763;29;20510;-83
2021/06/26 05:51:51;;;;;;;9.93;8.83;;;25.30;56.00;;;;;;4880393;29;21164;-83
2021/06/26 05:54:19;;;;;;;11.13;9.60;;;25.30;56.00;;;;;;4880490;29;20423;-83
2021/06/26 05:56:45;;;;;;;11.20;9.43;;;25.30;56.10;;;;;;4864630;29;20197;-82
2021/06/26 05:59:14;;;;;;;14.70;10.00;;;25.30;56.10;;;;;;4880257;29;20505;-84
2021/06/26 06:01:40;;;;;;;12.83;9.67;;;25.30;56.10;;;;;;4880522;29;20414;-83
2021/06/26 06:04:07;;;;;;;10.03;8.57;;;25.30;56.10;;;;;;4863901;29;20497;-82
2021/06/26 06:06:34;;;;;;;11.00;9.00;;;25.30;56.10;;;;;;4880030;29;20880;-83
2021/06/26 06:09:11;;;;;;;11.80;9.83;;;25.30;56.10;;;;;;4898991;29;20431;-83
2021/06/26 06:11:37;;;;;;;9.70;8.40;;;25.30;56.10;;;;;;4956071;29;20461;-84
2021/06/26 06:14:06;;;;;;;9.33;8.00;;;25.30;56.10;;;;;;4939804;29;20462;-83
2021/06/26 06:16:37;;;;;;;10.30;8.97;;;25.30;56.10;;;;;;4939321;29;20426;-84
2021/06/26 06:55:11;;;;;;;10.13;9.03;;;25.30;56.40;;;;;;4933509;29;20475;-84
2021/06/26 06:57:39;;;;;;;11.50;8.37;;;25.40;56.40;;;;;;4918169;29;20444;-83
2021/06/26 07:00:12;;;;;;;8.70;7.63;;;25.30;56.40;;;;;;4917431;29;20416;-83
2021/06/26 07:02:46;;;;;;;8.53;7.73;;;25.30;56.40;;;;;;4917209;29;20412;-82
2021/06/26 07:12:11;;;;;;;7.90;7.13;;;25.30;56.50;;;;;;4838877;29;20521;-84
2021/06/26 07:14:37;;;;;;;9.23;8.27;;;25.30;56.60;;;;;;4841211;29;20409;-83
2021/06/26 07:17:09;;;;;;;9.07;7.50;;;25.30;56.60;;;;;;4824591;29;20428;-83
2021/06/26 07:19:38;;;;;;;9.80;8.80;;;25.30;56.60;;;;;;4838164;29;20262;-83
2021/06/26 07:22:04;;;;;;;8.90;8.00;;;25.30;56.60;;;;;;4838253;29;20424;-83
2021/06/26 07:24:29;;;;;;;12.73;8.93;;;25.30;56.60;;;;;;4838122;29;20424;-83
2021/06/26 08:01:25;;;;;;;10.13;9.20;;;25.30;56.70;;;;;;5754981;23;20450;-83
2021/06/26 08:51:14;;;;;;;9.90;8.90;;;25.40;57.10;;;;;;5368374;23;20499;-84
2021/06/26 08:56:34;;;;;;;9.07;8.17;;;25.40;57.10;;;;;;4941502;29;20411;-83
2021/06/26 09:02:38;;;;;;;9.40;8.50;;;25.40;57.10;;;;;;5010339;23;20537;-83
2021/06/26 09:45:14;;;;;;;9.30;8.50;;;25.50;57.30;;;;;;5488820;23;20677;-82
2021/06/26 09:53:26;;;;;;;11.97;8.03;;;25.50;57.20;;;;;;5157556;23;20474;-82
2021/06/26 09:59:40;;;;;;;8.70;8.00;;;25.50;57.00;;;;;;4947127;29;20415;-82
2021/06/26 10:31:13;;;;;;;8.10;7.30;;;25.50;56.10;;;;;;4918677;29;20508;-83
2021/06/26 10:33:40;;;;;;;7.97;7.27;;;25.50;56.20;;;;;;4901736;29;20463;-82
2021/06/26 10:36:07;;;;;;;8.10;7.33;;;25.50;56.20;;;;;;4902220;29;20453;-83
2021/06/26 10:38:46;;;;;;;8.60;7.57;;;25.50;56.20;;;;;;4901997;29;20504;-83
2021/06/26 10:42:20;;;;;;;8.30;7.50;;;25.60;56.20;;;;;;4901912;29;20430;-83
2021/06/26 10:44:53;;;;;;;7.57;6.87;;;25.60;56.30;;;;;;4837703;29;20820;-83
2021/06/26 10:47:37;;;;;;;7.60;6.63;;;25.50;56.30;;;;;;4917385;29;20404;-83
2021/06/26 10:50:25;;;;;;;8.70;7.80;;;25.60;56.40;;;;;;4901789;29;20506;-84
2021/06/26 10:52:58;;;;;;;7.27;6.63;;;25.60;56.40;;;;;;4898836;29;20475;-83
2021/06/26 10:55:36;;;;;;;7.80;7.00;;;25.60;56.40;;;;;;4901571;29;20424;-83
2021/06/26 10:58:05;;;;;;;7.40;6.70;;;25.60;56.40;;;;;;4918692;29;20511;-83
2021/06/26 11:00:43;;;;;;;8.00;7.20;;;25.60;56.30;;;;;;4935322;29;20419;-87
2021/06/26 11:03:24;;;;;;;7.30;6.60;;;25.60;56.20;;;;;;4933992;29;20440;-83
2021/06/26 11:06:09;;;;;;;7.70;6.90;;;25.60;56.10;;;;;;4933860;29;20415;-83
2021/06/26 11:08:35;;;;;;;7.90;6.70;;;25.60;56.10;;;;;;4933309;29;20477;-82
2021/06/26 11:11:02;;;;;;;6.93;6.33;;;25.60;56.10;;;;;;4934838;29;20416;-82
2021/06/26 11:13:30;;;;;;;6.70;6.03;;;25.60;56.10;;;;;;4933331;29;20466;-84
2021/06/26 11:16:07;;;;;;;8.50;7.80;;;25.60;56.10;;;;;;4932880;29;20419;-84
2021/06/26 11:18:33;;;;;;;6.77;6.07;;;25.60;56.10;;;;;;4932295;29;20412;-84
2021/06/26 11:21:04;;;;;;;7.53;6.60;;;25.60;56.20;;;;;;4931631;29;20440;-84
2021/06/26 11:23:30;;;;;;;7.80;7.00;;;25.60;56.20;;;;;;4931449;29;20415;-83
2021/06/26 11:26:01;;;;;;;7.67;6.90;;;25.60;56.30;;;;;;4930971;29;20430;-84
2021/06/26 11:28:27;;;;;;;7.70;7.00;;;25.60;56.30;;;;;;4934733;29;20428;-84
2021/06/26 11:31:01;;;;;;;8.57;7.67;;;25.60;56.30;;;;;;4934938;29;20493;-84
2021/06/26 11:33:36;;;;;;;8.37;7.10;;;25.60;56.20;;;;;;4934859;29;20474;-84
2021/06/26 11:36:08;;;;;;;7.50;6.80;;;25.60;56.30;;;;;;4935250;29;20415;-84
2021/06/26 11:38:45;;;;;;;7.73;7.03;;;25.60;56.20;;;;;;4934515;29;20408;-84
2021/06/26 11:41:12;;;;;;;8.60;7.80;;;25.60;56.10;;;;;;4935242;29;20432;-85
2021/06/26 11:43:50;;;;;;;8.70;6.50;;;25.60;56.20;;;;;;4934404;29;20438;-84
2021/06/26 11:46:45;;;;;;;8.90;7.07;;;25.70;56.30;;;;;;4935564;29;20404;-84
2021/06/26 11:49:30;;;;;;;10.93;7.70;;;25.60;56.10;;;;;;4925899;29;20400;-84
2021/06/26 11:51:58;;;;;;;7.23;6.53;;;25.60;56.30;;;;;;4920876;29;20470;-84
2021/06/26 11:54:28;;;;;;;7.57;6.87;;;25.60;56.30;;;;;;4934669;29;20392;-84
2021/06/26 11:57:02;;;;;;;8.07;7.10;;;25.60;56.30;;;;;;4933966;29;20483;-84
2021/06/26 11:59:41;;;;;;;6.83;6.23;;;25.60;56.30;;;;;;4933750;29;20415;-84
2021/06/26 12:02:09;;;;;;;7.33;6.63;;;25.70;56.30;;;;;;4935444;29;20408;-84
2021/06/26 12:04:45;;;;;;;6.90;6.23;;;25.60;56.30;;;;;;4933484;29;20436;-84
2021/06/26 12:07:13;;;;;;;6.70;6.10;;;25.70;56.30;;;;;;4934905;29;20420;-84
2021/06/26 12:09:45;;;;;;;7.43;6.17;;;25.60;56.30;;;;;;4935043;29;20424;-84
2021/06/26 12:12:11;;;;;;;6.90;6.30;;;25.60;56.30;;;;;;4935310;29;20455;-84
2021/06/26 12:14:39;;;;;;;7.40;6.60;;;25.60;56.30;;;;;;4934620;29;20423;-84
2021/06/26 12:17:19;;;;;;;7.40;6.80;;;25.70;56.30;;;;;;4936014;29;20404;-84
2021/06/26 12:19:49;;;;;;;7.53;6.70;;;25.70;56.20;;;;;;4934604;29;20470;-84
2021/06/26 12:22:27;;;;;;;7.70;7.00;;;25.70;56.20;;;;;;4934072;29;20427;-84
2021/06/26 12:25:09;;;;;;;6.10;5.60;;;25.60;56.10;;;;;;4934798;29;20536;-84
2021/06/26 12:27:37;;;;;;;7.40;6.70;;;25.70;56.00;;;;;;4932148;29;20427;-84
2021/06/26 12:30:17;;;;;;;6.83;6.20;;;25.70;55.90;;;;;;4930823;29;20431;-84
2021/06/26 12:32:44;;;;;;;7.83;6.70;;;25.70;55.80;;;;;;4928965;29;20479;-84
2021/06/26 12:35:15;;;;;;;7.20;6.60;;;25.60;55.70;;;;;;4930379;29;20499;-84
2021/06/26 12:37:45;;;;;;;7.23;6.63;;;25.70;55.80;;;;;;4930136;29;20450;-84
2021/06/26 12:40:18;;;;;;;8.20;7.40;;;25.60;55.70;;;;;;4929111;29;20431;-84
2021/06/26 12:42:56;;;;;;;7.30;6.67;;;25.70;55.80;;;;;;4929739;29;20450;-84
2021/06/26 12:45:34;;;;;;;6.87;6.27;;;25.70;55.80;;;;;;4929383;29;20427;-84
2021/06/26 12:48:13;;;;;;;7.47;6.80;;;25.70;55.70;;;;;;4929132;29;20430;-84
2021/06/26 12:50:58;;;;;;;6.70;6.10;;;25.70;55.70;;;;;;4930015;29;20431;-85
2021/06/26 12:53:35;;;;;;;7.97;7.27;;;25.60;55.50;;;;;;4930258;29;20463;-83
2021/06/26 12:56:27;;;;;;;6.90;6.30;;;25.70;55.50;;;;;;4929298;29;20526;-83
2021/06/26 13:02:19;;;;;;;6.67;5.93;;;25.60;55.40;;;;;;4930532;29;20440;-83
2021/06/26 13:04:54;;;;;;;7.73;6.93;;;25.60;55.30;;;;;;4925258;29;20424;-83
2021/06/26 13:07:27;;;;;;;7.70;6.60;;;25.70;55.30;;;;;;4930142;29;20471;-83
2021/06/26 13:10:06;;;;;;;7.53;6.40;;;25.60;55.20;;;;;;4915289;29;20527;-87
2021/06/26 13:12:35;;;;;;;6.20;5.47;;;25.70;55.30;;;;;;4915318;29;20467;-83
2021/06/26 13:15:08;;;;;;;5.90;5.30;;;25.60;55.30;;;;;;4930787;29;20420;-83
2021/06/26 13:17:34;;;;;;;12.13;6.73;;;25.70;55.40;;;;;;4930209;29;20428;-83
2021/06/26 13:20:00;;;;;;;6.33;5.57;;;25.60;55.30;;;;;;4931648;29;20467;-83
2021/06/26 13:22:26;;;;;;;9.93;7.10;;;25.70;55.30;;;;;;4931951;29;20230;-83
2021/06/26 13:24:56;;;;;;;8.30;6.47;;;25.70;55.30;;;;;;4930767;29;20435;-83
2021/06/26 13:27:22;;;;;;;10.60;6.70;;;25.70;55.30;;;;;;4929186;29;20487;-83
2021/06/26 13:29:48;;;;;;;9.33;6.33;;;25.70;55.30;;;;;;4929104;29;20911;-83
2021/06/26 13:32:15;;;;;;;13.70;6.83;;;25.70;55.30;;;;;;4928549;29;20207;-82
2021/06/26 13:34:43;;;;;;;12.13;6.60;;;25.70;55.40;;;;;;4928475;29;20424;-82
2021/06/26 13:37:09;;;;;;;14.33;8.03;;;25.70;55.40;;;;;;4928546;29;20507;-83
2021/06/26 13:39:36;;;;;;;11.87;6.17;;;25.70;55.40;;;;;;4929755;29;20459;-83
2021/06/26 13:42:02;;;;;;;13.27;5.97;;;25.70;55.40;;;;;;4929523;29;20933;-83
2021/06/26 13:44:28;;;;;;;7.60;5.87;;;25.70;55.30;;;;;;4934752;29;20427;-82
2021/06/26 13:46:54;;;;;;;11.30;6.50;;;25.80;55.50;;;;;;4934932;29;20447;-81
2021/06/26 13:49:19;;;;;;;7.27;5.70;;;25.80;55.50;;;;;;4933184;29;20506;-82
2021/06/26 13:55:08;;;;;;;8.80;5.80;;;25.80;55.50;;;;;;4933892;29;20207;-81
2021/06/26 14:00:57;;;;;;;8.70;5.53;;;25.80;55.40;;;;;;4934024;29;20395;-82
2021/06/26 14:03:22;;;;;;;6.60;5.87;;;25.70;55.30;;;;;;4932336;29;20429;-82
2021/06/26 14:05:48;;;;;;;12.23;6.10;;;25.70;55.30;;;;;;4932173;29;20412;-82
2021/06/26 14:08:14;;;;;;;14.80;5.93;;;25.70;55.20;;;;;;4932679;29;20180;-82
2021/06/26 14:10:40;;;;;;;18.63;6.10;;;25.70;55.20;;;;;;4932576;29;20926;-82
2021/06/26 14:13:08;;;;;;;14.13;6.30;;;25.70;55.20;;;;;;4934235;29;20219;-84
2021/06/26 14:15:34;;;;;;;17.77;5.90;;;25.70;55.20;;;;;;4933051;29;20423;-82
2021/06/26 14:18:01;;;;;;;13.37;6.63;;;25.70;55.10;;;;;;4932940;29;20428;-82
2021/06/26 14:20:27;;;;;;;8.37;5.93;;;25.70;55.00;;;;;;4933078;29;20495;-82
2021/06/26 14:22:55;;;;;;;10.90;5.87;;;25.70;55.00;;;;;;4932282;29;20496;-82
2021/06/26 14:25:24;;;;;;;12.40;5.47;;;25.70;55.00;;;;;;4933049;29;20480;-82
2021/06/26 14:27:50;;;;;;;13.57;5.70;;;25.80;55.00;;;;;;4932939;29;20419;-82
2021/06/26 14:30:16;;;;;;;8.50;5.33;;;25.70;54.90;;;;;;4932576;29;20466;-82
2021/06/26 14:32:43;;;;;;;10.00;6.10;;;25.70;54.90;;;;;;4934016;29;20200;-82
2021/06/26 14:35:09;;;;;;;11.67;5.63;;;25.80;55.00;;;;;;4932234;29;20424;-82
2021/06/26 14:37:35;;;;;;;10.50;5.90;;;25.70;54.90;;;;;;4932172;29;20522;-82
2021/06/26 14:40:02;;;;;;;12.93;5.47;;;25.70;54.90;;;;;;4916690;29;20420;-83
2021/06/26 14:42:28;;;;;;;9.50;6.10;;;25.70;54.90;;;;;;4931808;29;20455;-83
2021/06/26 14:44:54;;;;;;;12.87;5.50;;;25.70;54.80;;;;;;4933344;29;20420;-81
2021/06/26 14:47:20;;;;;;;9.43;5.70;;;25.70;54.80;;;;;;4932151;29;20184;-82
2021/06/26 14:49:48;;;;;;;13.20;5.30;;;25.70;54.80;;;;;;4932223;29;20184;-82
2021/06/26 14:52:26;;;;;;;5.80;5.07;;;25.70;54.70;;;;;;4932345;29;20203;-82
2021/06/26 14:54:52;;;;;;;8.13;5.50;;;25.70;54.70;;;;;;4932827;29;20415;-82
2021/06/26 14:57:19;;;;;;;8.23;5.27;;;25.70;54.80;;;;;;4931790;29;20488;-82
2021/06/26 14:59:51;;;;;;;10.00;6.00;;;25.70;54.70;;;;;;4932499;29;20184;-82
2021/06/26 15:02:36;;;;;;;11.07;4.87;;;25.70;54.90;;;;;;4932030;29;20514;-82
2021/06/26 15:05:04;;;;;;;9.30;5.07;;;25.80;55.10;;;;;;4932679;29;20430;-83
2021/06/26 15:07:34;;;;;;;10.10;6.20;;;25.70;55.00;;;;;;4933014;29;20427;-82
2021/06/26 15:10:11;;;;;;;5.90;5.37;;;25.70;55.00;;;;;;4932311;29;20419;-83
2021/06/26 15:12:38;;;;;;;8.83;4.77;;;25.70;55.10;;;;;;4933317;29;20507;-82
2021/06/26 15:15:06;;;;;;;11.13;4.77;;;25.70;55.10;;;;;;4933637;29;20456;-82
2021/06/26 15:17:38;;;;;;;9.57;4.57;;;25.70;55.10;;;;;;4935243;29;20476;-82
2021/06/26 15:20:05;;;;;;;7.67;5.37;;;25.80;55.20;;;;;;4934442;29;20428;-83
2021/06/26 15:22:35;;;;;;;5.47;4.80;;;25.70;55.10;;;;;;4934301;29;20424;-83
2021/06/26 15:25:10;;;;;;;10.13;4.87;;;25.70;55.10;;;;;;4934675;29;20423;-82
2021/06/26 15:30:59;;;;;;;5.30;4.60;;;25.80;55.00;;;;;;4934578;29;20375;-83
2021/06/26 15:33:24;;;;;;;7.23;5.10;;;25.70;55.00;;;;;;4932706;29;20519;-82
2021/06/26 15:35:52;;;;;;;5.20;4.60;;;25.70;54.90;;;;;;4932242;29;20915;-82
2021/06/26 15:38:24;;;;;;;5.43;4.90;;;25.80;55.00;;;;;;4933458;29;20164;-82
2021/06/26 15:41:10;;;;;;;4.90;4.50;;;25.70;54.90;;;;;;4931898;29;20452;-82
2021/06/26 15:43:37;;;;;;;4.83;4.37;;;25.70;54.90;;;;;;4931676;29;20456;-81
2021/06/26 15:46:04;;;;;;;5.80;4.50;;;25.80;55.00;;;;;;4931598;29;20428;-81
2021/06/26 15:48:32;;;;;;;7.47;4.87;;;25.70;55.00;;;;;;4933220;29;20419;-81
2021/06/26 15:51:01;;;;;;;4.87;4.37;;;25.70;55.00;;;;;;4931598;29;20966;-82
2021/06/26 15:53:29;;;;;;;7.30;4.80;;;25.70;54.90;;;;;;4932667;29;20470;-82
2021/06/26 15:56:30;;;;;;;4.53;4.13;;;25.80;54.90;;;;;;4932762;29;20950;-82
2021/06/26 15:59:16;;;;;;;4.50;4.10;;;25.70;54.80;;;;;;4931472;29;20424;-86
2021/06/26 16:05:19;;;;;;;5.27;4.17;;;25.80;54.60;;;;;;4931979;29;20493;-83
2021/06/26 16:07:48;;;;;;;4.27;3.70;;;25.70;54.50;;;;;;4916210;29;20811;-83
2021/06/26 16:10:14;;;;;;;4.23;3.30;;;25.70;54.40;;;;;;4931975;29;20428;-82
2021/06/26 16:12:42;;;;;;;4.70;4.13;;;25.70;54.30;;;;;;4932616;29;20470;-83
2021/06/26 16:15:10;;;;;;;6.30;3.70;;;25.70;54.20;;;;;;4932531;29;20476;-82
2021/06/26 16:17:37;;;;;;;5.17;3.73;;;25.70;54.20;;;;;;4930903;29;20424;-83
2021/06/26 16:20:06;;;;;;;4.83;3.87;;;25.80;54.20;;;;;;4931962;29;20478;-83
2021/06/26 16:22:33;;;;;;;4.13;3.73;;;25.70;54.10;;;;;;4931472;29;20428;-83
2021/06/26 16:25:03;;;;;;;3.90;3.30;;;25.80;54.10;;;;;;4931345;29;20423;-83
2021/06/26 16:27:34;;;;;;;3.90;3.60;;;25.70;54.00;;;;;;4931427;29;20915;-82
2021/06/26 16:30:00;;;;;;;4.27;3.87;;;25.80;54.10;;;;;;4916814;29;20458;-82
2021/06/26 16:32:31;;;;;;;4.00;3.60;;;25.70;54.00;;;;;;4932709;29;20546;-82
2021/06/26 16:35:01;;;;;;;4.60;3.50;;;25.80;54.00;;;;;;4932027;29;20184;-81
2021/06/26 16:37:32;;;;;;;4.30;3.90;;;25.80;54.00;;;;;;4931181;29;20424;-83
2021/06/26 16:40:01;;;;;;;4.27;3.30;;;25.80;54.00;;;;;;4931793;29;20475;-81
2021/06/26 16:42:28;;;;;;;4.57;3.77;;;25.80;54.10;;;;;;4930672;29;20448;-81
2021/06/26 16:44:57;;;;;;;3.90;3.60;;;25.70;54.00;;;;;;4931071;29;20427;-83
2021/06/26 16:47:26;;;;;;;4.13;3.73;;;25.70;54.00;;;;;;4930984;29;20423;-83
2021/06/26 16:49:53;;;;;;;4.37;3.80;;;25.80;54.10;;;;;;4931586;29;20487;-82
2021/06/26 16:52:21;;;;;;;5.43;3.70;;;25.80;54.00;;;;;;4932191;29;20466;-83